createdAt,value
2022-11-18T00:24:50.908Z,10.40
2022-11-18T00:27:18.908Z,10.00
2022-11-18T00:29:46.710Z,9.80
2022-11-18T00:32:14.682Z,9.80
2022-11-18T00:34:43.629Z,9.30
2022-11-18T00:37:12.143Z,9.90
2022-11-18T00:39:40.067Z,9.70
2022-11-18T00:42:25.121Z,10.60
2022-11-18T00:44:52.904Z,10.20
2022-11-18T00:47:20.642Z,11.10
2022-11-18T00:49:48.429Z,9.80
2022-11-18T00:52:16.194Z,10.60
2022-11-18T00:54:43.984Z,10.00
2022-11-18T00:57:11.807Z,11.20
2022-11-18T00:59:39.854Z,10.30
2022-11-18T01:02:07.561Z,10.60
2022-11-18T01:04:35.293Z,10.90
2022-11-18T01:07:03.187Z,11.50
2022-11-18T01:09:30.988Z,10.70
2022-11-18T01:12:17.041Z,10.60
2022-11-18T01:14:45.056Z,12.20
2022-11-18T01:17:12.833Z,12.80
2022-11-18T01:19:40.895Z,12.20
2022-11-18T01:22:08.581Z,11.60
2022-11-18T01:24:36.243Z,10.80
2022-11-18T01:27:04.490Z,11.40
2022-11-18T01:29:32.287Z,11.90
2022-11-18T01:34:48.047Z,11.10
2022-11-18T01:37:16.441Z,11.80
2022-11-18T01:39:44.329Z,10.60
2022-11-18T01:42:17.506Z,11.10
2022-11-18T01:45:02.316Z,10.90
2022-11-18T01:47:35.812Z,12.20
2022-11-18T01:50:05.094Z,10.10
2022-11-18T01:52:34.804Z,11.60
2022-11-18T01:55:10.835Z,10.60
2022-11-18T01:57:39.264Z,10.50
2022-11-18T02:00:08.380Z,10.80
2022-11-18T02:02:38.195Z,10.30
2022-11-18T02:05:07.977Z,10.60
2022-11-18T02:07:40.671Z,11.10
2022-11-18T02:10:15.321Z,11.40
2022-11-18T02:12:43.548Z,11.10
2022-11-18T02:15:11.359Z,10.90
2022-11-18T02:17:55.336Z,10.60
2022-11-18T02:20:29.441Z,11.30
2022-11-18T02:23:31.466Z,11.90
2022-11-18T02:26:26.003Z,11.90
2022-11-18T02:29:04.807Z,11.20
2022-11-18T02:31:47.152Z,12.50
2022-11-18T02:34:28.649Z,12.00
2022-11-18T02:37:04.233Z,13.00
2022-11-18T02:39:37.685Z,12.20
2022-11-18T02:42:11.439Z,12.50
2022-11-18T02:44:43.220Z,12.70
2022-11-18T02:47:15.409Z,11.90
2022-11-18T02:49:48.472Z,12.20
2022-11-18T02:52:18.096Z,13.70
2022-11-18T02:54:49.208Z,12.50
2022-11-18T02:57:20.714Z,12.90
2022-11-18T02:59:49.021Z,15.00
2022-11-18T03:02:19.220Z,15.70
2022-11-18T03:04:49.570Z,14.70
2022-11-18T03:07:26.357Z,12.10
2022-11-18T03:09:55.275Z,16.00
2022-11-18T03:12:32.723Z,15.90
2022-11-18T03:15:15.353Z,21.60
2022-11-18T03:17:55.541Z,18.40
2022-11-18T03:20:38.210Z,23.50
2022-11-18T03:23:22.856Z,22.40
2022-11-18T03:25:59.039Z,23.20
2022-11-18T03:28:36.723Z,22.70
2022-11-18T03:31:15.971Z,22.80
2022-11-18T03:33:49.967Z,21.20
2022-11-18T03:36:20.837Z,20.90
2022-11-18T03:38:53.166Z,20.40
2022-11-18T03:41:24.528Z,18.90
2022-11-18T03:43:59.651Z,18.50
2022-11-18T03:46:36.774Z,19.90
2022-11-18T03:49:08.111Z,16.80
2022-11-18T03:51:42.184Z,16.70
2022-11-18T03:54:16.988Z,16.50
2022-11-18T03:56:56.305Z,15.00
2022-11-18T03:59:32.385Z,15.10
2022-11-18T04:02:11.671Z,16.90
2022-11-18T04:04:40.102Z,15.40
2022-11-18T04:07:23.955Z,17.50
2022-11-18T04:09:58.379Z,16.70
2022-11-18T04:12:31.175Z,15.30
2022-11-18T04:14:59.547Z,16.70
2022-11-18T04:17:28.996Z,16.70
2022-11-18T04:19:58.076Z,17.50
2022-11-18T04:22:25.837Z,16.90
2022-11-18T04:24:53.598Z,17.00
2022-11-18T04:27:21.353Z,16.30
2022-11-18T04:29:49.817Z,16.60
2022-11-18T04:32:17.851Z,16.10
2022-11-18T04:34:45.570Z,16.50
2022-11-18T04:37:13.429Z,16.20
2022-11-18T04:39:41.297Z,17.80
2022-11-18T04:42:09.082Z,17.10
2022-11-18T04:44:37.107Z,16.30
2022-11-18T04:47:06.986Z,14.00
2022-11-18T04:49:35.799Z,15.90
2022-11-18T04:52:04.479Z,15.30
2022-11-18T04:54:32.233Z,14.90
2022-11-18T04:57:00.194Z,15.40
2022-11-18T04:59:30.109Z,16.10
2022-11-18T05:02:00.964Z,16.20
2022-11-18T05:04:33.221Z,18.30
2022-11-18T05:07:04.505Z,18.30
2022-11-18T05:09:33.600Z,19.70
2022-11-18T05:12:21.555Z,17.30
2022-11-18T05:14:50.876Z,17.00
2022-11-18T05:17:19.408Z,16.80
2022-11-18T05:19:47.182Z,17.00
2022-11-18T05:22:15.730Z,16.60
2022-11-18T07:11:08.454Z,15.20
2022-11-18T07:13:43.806Z,15.30
2022-11-18T07:16:42.246Z,14.30
2022-11-18T07:19:36.084Z,16.20
2022-11-18T07:22:23.518Z,16.90
2022-11-18T07:27:29.070Z,17.30
2022-11-18T07:30:16.710Z,17.50
2022-11-18T07:33:31.303Z,17.80
2022-11-18T07:36:12.959Z,18.20
2022-11-18T07:39:10.399Z,16.10
2022-11-18T07:41:50.477Z,16.40
2022-11-18T07:44:24.196Z,15.00
2022-11-18T07:47:48.179Z,15.70
2022-11-18T07:50:20.023Z,16.30
2022-11-18T07:52:58.408Z,16.40
2022-11-18T07:55:32.274Z,17.10
2022-11-18T07:58:09.458Z,15.80
2022-11-18T08:00:37.534Z,14.60
2022-11-18T08:03:19.890Z,15.10
2022-11-18T08:06:08.653Z,14.50
2022-11-18T08:09:16.708Z,14.10
2022-11-18T08:12:40.554Z,14.00
2022-11-18T08:16:16.492Z,13.80
2022-11-18T08:46:16.731Z,15.00
2022-11-18T08:54:44.505Z,15.40
2022-11-18T08:57:51.820Z,15.10
2022-11-18T09:21:18.406Z,13.10
2022-11-18T09:24:19.064Z,12.90
2022-11-18T09:27:00.207Z,12.00
2022-11-18T09:29:59.229Z,11.80
2022-11-18T09:33:03.835Z,12.10
2022-11-18T09:51:11.434Z,12.60
2022-11-18T09:53:51.173Z,12.70
2022-11-18T09:56:57.591Z,12.90
2022-11-18T10:01:07.710Z,11.50
2022-11-18T10:03:37.361Z,12.20
2022-11-18T10:06:31.663Z,13.40
2022-11-18T10:09:55.990Z,12.90
2022-11-18T10:12:50.120Z,12.10
2022-11-18T10:16:27.321Z,13.00
2022-11-18T10:19:34.738Z,12.20
2022-11-18T10:22:57.385Z,11.60
2022-11-18T10:29:44.557Z,12.50
2022-11-18T10:32:19.917Z,12.50
2022-11-18T10:35:13.359Z,12.00
2022-11-18T10:38:08.311Z,10.60
2022-11-18T10:40:58.051Z,11.20
2022-11-18T10:43:46.800Z,11.50
2022-11-18T10:46:56.858Z,11.30
2022-11-18T10:49:30.607Z,10.90
2022-11-18T10:52:10.797Z,10.40
2022-11-18T10:54:39.691Z,10.60
2022-11-18T10:57:21.251Z,10.80
2022-11-18T10:59:51.465Z,10.10
2022-11-18T11:02:34.761Z,10.10
2022-11-18T11:05:25.030Z,12.90
2022-11-18T11:11:30.722Z,11.80
2022-11-18T11:14:21.708Z,12.10
2022-11-18T11:17:02.679Z,13.80
2022-11-18T11:19:49.100Z,13.40
2022-11-18T11:22:30.057Z,13.30
2022-11-18T11:28:49.789Z,14.30
2022-11-18T11:31:33.444Z,14.10
2022-11-18T11:34:27.578Z,12.80
2022-11-18T11:37:13.003Z,13.70
2022-11-18T11:40:06.173Z,11.80
2022-11-18T11:42:55.530Z,11.70
2022-11-18T11:45:36.652Z,10.90
2022-11-18T11:48:32.766Z,11.70
2022-11-18T11:51:28.172Z,11.60
2022-11-18T11:54:22.306Z,12.70
2022-11-18T11:57:09.996Z,11.40
2022-11-18T12:00:05.503Z,12.00
2022-11-18T12:03:17.782Z,13.10
2022-11-18T12:05:46.523Z,13.30
2022-11-18T12:08:22.231Z,13.50
2022-11-18T12:11:04.679Z,14.60
2022-11-18T12:13:52.481Z,14.30
2022-11-18T12:16:51.757Z,15.10
2022-11-18T12:19:21.613Z,14.10
2022-11-18T12:21:52.957Z,14.60
2022-11-18T12:24:42.069Z,15.70
2022-11-18T12:27:59.787Z,16.30
2022-11-18T12:30:46.983Z,15.40
2022-11-18T12:33:16.931Z,15.10
2022-11-18T12:35:51.299Z,15.80
2022-11-18T12:38:31.833Z,14.40
2022-11-18T12:42:10.135Z,15.60
2022-11-18T12:44:38.796Z,15.20
2022-11-18T12:47:12.593Z,15.90
2022-11-18T12:50:16.456Z,16.90
2022-11-18T12:53:11.960Z,13.60
2022-11-18T12:55:48.895Z,13.70
2022-11-18T12:58:26.023Z,13.80
2022-11-18T13:02:21.473Z,13.20
2022-11-18T13:05:02.953Z,12.70
2022-11-18T13:08:01.476Z,11.40
2022-11-18T13:10:36.230Z,10.60
2022-11-18T14:30:31.346Z,11.40
2022-11-18T14:33:27.061Z,10.10
2022-11-18T14:39:26.337Z,12.30
2022-11-18T14:41:47.642Z,12.30
2022-11-18T14:45:00.254Z,12.10
2022-11-18T14:47:31.542Z,13.30
2022-11-18T14:50:15.472Z,14.00
2022-11-18T14:52:43.515Z,13.40
2022-11-18T14:55:12.898Z,12.70
2022-11-18T14:57:54.669Z,13.00
2022-11-18T15:00:28.988Z,13.50
2022-11-18T15:03:04.840Z,14.90
2022-11-18T15:05:35.627Z,13.80
2022-11-18T15:08:24.277Z,14.20
2022-11-18T15:11:06.883Z,14.30
2022-11-18T15:13:36.341Z,15.80
2022-11-18T15:16:26.241Z,13.90
2022-11-18T15:19:00.300Z,15.40
2022-11-18T15:21:38.084Z,14.50
2022-11-18T15:24:07.598Z,12.90
2022-11-18T15:26:39.859Z,13.30
2022-11-18T15:29:16.199Z,14.20
2022-11-18T15:31:44.576Z,14.30
2022-11-18T15:34:13.310Z,15.80
2022-11-18T15:36:46.899Z,14.90
2022-11-18T15:39:14.918Z,13.70
2022-11-18T15:41:43.234Z,12.30
2022-11-18T15:44:38.977Z,12.70
2022-11-18T15:47:17.529Z,11.80
2022-11-18T15:49:47.037Z,11.60
2022-11-18T15:52:15.016Z,9.70
2022-11-18T15:54:44.960Z,9.00
2022-11-18T15:57:13.176Z,9.10
2022-11-18T15:59:41.243Z,7.60
2022-11-18T16:02:11.633Z,7.00
2022-11-18T16:04:39.935Z,6.40
2022-11-18T16:07:08.015Z,7.40
2022-11-18T16:09:55.864Z,6.70
2022-11-18T16:12:35.973Z,6.90
2022-11-18T16:15:16.144Z,4.20
2022-11-18T16:17:44.354Z,6.60
2022-11-18T16:20:19.267Z,9.30
2022-11-18T16:22:47.634Z,7.20
2022-11-18T16:25:15.569Z,6.00
2022-11-18T16:27:44.902Z,5.70
2022-11-18T16:30:33.251Z,5.50
2022-11-18T16:33:01.564Z,9.20
2022-11-18T16:35:29.495Z,8.90
2022-11-18T16:37:57.436Z,10.40
2022-11-18T16:40:25.429Z,11.30
2022-11-18T16:42:56.182Z,11.90
2022-11-18T16:45:23.965Z,10.10
2022-11-18T16:47:51.766Z,11.00
2022-11-18T16:50:19.609Z,14.40
2022-11-18T16:52:47.407Z,16.40
2022-11-18T16:55:15.370Z,15.40
2022-11-18T16:57:43.165Z,17.40
2022-11-18T17:00:12.634Z,17.40
2022-11-18T17:02:40.491Z,17.20
2022-11-18T17:05:08.717Z,14.80
2022-11-18T17:07:39.973Z,15.90
2022-11-18T17:10:19.758Z,16.30
2022-11-18T17:12:47.550Z,16.60
2022-11-18T17:15:15.384Z,14.70
2022-11-18T17:17:43.302Z,15.50
2022-11-18T17:20:11.075Z,16.20
2022-11-18T17:22:38.876Z,16.40
2022-11-18T17:25:07.220Z,16.10
2022-11-18T17:27:35.011Z,14.60
2022-11-18T17:30:02.818Z,13.80
2022-11-18T17:32:30.866Z,10.80
2022-11-18T17:34:58.682Z,12.20
2022-11-18T17:37:29.474Z,17.10
2022-11-18T17:39:57.476Z,17.50
2022-11-18T17:42:25.834Z,19.30
2022-11-18T17:44:53.721Z,19.80
2022-11-18T17:47:21.615Z,21.80
2022-11-18T17:49:51.732Z,23.90
2022-11-18T17:52:19.473Z,20.60
2022-11-18T17:54:47.398Z,17.20
2022-11-18T17:57:15.104Z,17.90
2022-11-18T17:59:42.826Z,19.20
2022-11-18T18:02:12.406Z,17.60
2022-11-18T18:04:40.607Z,18.20
2022-11-18T18:07:08.762Z,17.60
2022-11-18T18:09:38.019Z,18.60
2022-11-18T18:12:25.937Z,19.50
2022-11-18T18:14:53.662Z,27.60
2022-11-18T18:17:21.425Z,24.60
2022-11-18T18:19:49.183Z,22.50
2022-11-18T18:22:16.943Z,19.40
2022-11-18T18:24:44.746Z,21.20
2022-11-18T18:27:12.506Z,18.20
2022-11-18T18:29:40.259Z,17.10
2022-11-18T18:32:08.052Z,15.70
2022-11-18T18:34:35.995Z,13.80
2022-11-18T18:37:04.185Z,14.10
2022-11-18T18:39:31.970Z,13.60
2022-11-18T18:42:00.529Z,14.70
2022-11-18T18:44:48.178Z,13.70
2022-11-18T18:47:16.011Z,24.30
2022-11-18T18:49:43.885Z,22.90
2022-11-18T18:52:11.772Z,23.80
2022-11-18T18:54:39.515Z,24.20
2022-11-18T18:57:07.354Z,24.20
2022-11-18T18:59:35.328Z,23.80
2022-11-18T19:02:04.695Z,23.10
2022-11-18T19:04:32.414Z,23.80
2022-11-18T19:07:00.700Z,27.20
2022-11-18T19:14:22.612Z,26.80
2022-11-18T19:16:52.736Z,27.70
2022-11-18T19:19:50.661Z,28.70
2022-11-18T19:22:19.921Z,27.00
2022-11-18T19:24:51.143Z,26.10
2022-11-18T19:27:31.614Z,26.30
2022-11-18T19:30:05.112Z,21.40
2022-11-18T19:32:36.819Z,19.60
2022-11-18T19:35:12.543Z,17.50
2022-11-18T19:37:47.242Z,16.10
2022-11-18T19:40:15.586Z,17.60
2022-11-18T19:42:43.869Z,20.10
2022-11-18T19:45:12.325Z,18.40
2022-11-18T19:47:43.190Z,20.30
2022-11-18T19:50:12.614Z,22.90
2022-11-18T19:52:41.007Z,21.60
2022-11-18T19:55:11.745Z,21.40
2022-11-18T19:57:39.764Z,23.50
2022-11-18T20:00:10.062Z,21.00
2022-11-18T20:02:43.040Z,21.20
2022-11-18T20:05:30.240Z,21.00
2022-11-18T20:08:01.021Z,21.90
2022-11-18T20:10:31.699Z,20.10
2022-11-18T20:12:59.577Z,13.10
2022-11-18T20:15:27.746Z,12.20
2022-11-18T20:17:58.098Z,12.00
2022-11-18T20:20:29.779Z,24.70
2022-11-18T20:22:57.699Z,28.50
2022-11-18T20:25:25.687Z,25.40
2022-11-18T20:27:57.482Z,27.10
2022-11-18T20:30:25.382Z,29.40
2022-11-18T20:32:53.261Z,32.20
2022-11-18T20:35:21.196Z,28.80
2022-11-18T20:37:57.321Z,29.10
2022-11-18T20:40:25.262Z,27.00
2022-11-18T20:43:12.066Z,29.50
2022-11-18T20:45:43.607Z,29.60
2022-11-18T20:48:11.759Z,28.80
2022-11-18T20:50:40.943Z,28.60
2022-11-18T20:53:08.940Z,28.00
2022-11-18T20:55:38.227Z,26.10
2022-11-18T20:58:06.254Z,26.10
2022-11-18T21:00:37.486Z,24.70
2022-11-18T21:03:12.470Z,29.30
2022-11-18T21:05:43.510Z,27.70
2022-11-18T21:08:21.528Z,28.40
2022-11-18T21:10:50.304Z,29.70
2022-11-18T21:13:34.373Z,31.40
2022-11-18T21:16:07.928Z,31.30
2022-11-18T21:18:38.779Z,29.60
2022-11-18T21:21:26.139Z,29.00
2022-11-18T21:23:56.199Z,28.90
2022-11-18T21:26:26.131Z,30.10
2022-11-18T21:28:56.675Z,28.80
2022-11-18T21:31:28.097Z,29.50
2022-11-18T21:33:57.060Z,30.20
2022-11-18T21:36:26.802Z,30.00
2022-11-18T21:38:54.789Z,29.00
2022-11-18T21:41:22.999Z,29.00
2022-11-18T21:44:05.428Z,24.70
2022-11-18T21:46:35.483Z,25.90
2022-11-18T21:49:05.077Z,23.30
2022-11-18T21:51:33.660Z,21.80
2022-11-18T21:54:02.417Z,22.70
2022-11-18T21:56:31.423Z,19.20
2022-11-18T21:59:01.362Z,18.90
2022-11-18T22:01:32.359Z,16.20
2022-11-18T22:04:02.767Z,13.10
2022-11-18T22:06:33.773Z,10.20
2022-11-18T22:09:03.765Z,11.60
2022-11-18T22:11:31.545Z,8.70
2022-11-18T22:13:59.415Z,7.60
2022-11-18T22:16:27.170Z,8.80
2022-11-18T22:19:01.170Z,7.30
2022-11-18T22:24:01.190Z,12.20
2022-11-18T22:26:29.552Z,14.60
2022-11-18T22:28:58.516Z,12.00
2022-11-18T22:31:28.360Z,13.20
2022-11-18T22:33:56.594Z,13.20
2022-11-18T22:36:26.085Z,16.00
2022-11-18T22:38:54.805Z,21.60
2022-11-18T22:41:39.754Z,24.90
2022-11-18T22:44:08.950Z,29.80
2022-11-18T22:46:39.529Z,29.30
2022-11-18T22:49:08.576Z,29.70
2022-11-18T22:51:41.023Z,25.80
2022-11-18T22:54:37.708Z,26.20
2022-11-18T22:56:57.692Z,25.00
2022-11-18T22:59:25.889Z,23.30
2022-11-18T23:01:53.832Z,23.50
2022-11-18T23:04:21.641Z,24.60
2022-11-18T23:06:49.654Z,24.50
2022-11-18T23:09:17.929Z,20.00
2022-11-18T23:12:01.592Z,18.40
2022-11-18T23:14:29.437Z,13.90
2022-11-18T23:16:57.235Z,9.20
2022-11-18T23:19:24.999Z,7.70
2022-11-18T23:21:52.738Z,6.10
2022-11-18T23:24:20.531Z,6.40
2022-11-18T23:26:48.377Z,6.00
2022-11-18T23:29:16.444Z,6.90
2022-11-18T23:31:45.191Z,5.00
2022-11-18T23:34:17.809Z,4.20
2022-11-18T23:36:46.074Z,3.70
2022-11-18T23:39:13.906Z,4.10
2022-11-18T23:41:41.943Z,2.80
2022-11-18T23:44:09.754Z,1.20
2022-11-18T23:46:37.641Z,0.60
2022-11-18T23:49:09.593Z,0.70
2022-11-18T23:51:37.299Z,0.50
2022-11-18T23:54:05.159Z,0.30
2022-11-18T23:56:37.790Z,0.40
2022-11-18T23:59:06.714Z,0.50
